sensor_id;sensor_type;location;lat;lon;timestamp;P1;durP1;ratioP1;P2;durP2;ratioP2
70588;SDS011;58152;49.202;18.744;2023-08-08T00:02:14;1.55;;;0.63;;
70588;SDS011;58152;49.202;18.744;2023-08-08T00:04:39;1.63;;;0.70;;
70588;SDS011;58152;49.202;18.744;2023-08-08T00:07:04;0.55;;;0.50;;
70588;SDS011;58152;49.202;18.744;2023-08-08T00:09:31;1.02;;;0.60;;
70588;SDS011;58152;49.202;18.744;2023-08-08T00:11:57;1.30;;;0.57;;
70588;SDS011;58152;49.202;18.744;2023-08-08T00:14:23;0.65;;;0.50;;
70588;SDS011;58152;49.202;18.744;2023-08-08T00:16:49;1.33;;;0.60;;
70588;SDS011;58152;49.202;18.744;2023-08-08T00:19:14;0.60;;;0.60;;
70588;SDS011;58152;49.202;18.744;2023-08-08T00:21:40;0.70;;;0.70;;
70588;SDS011;58152;49.202;18.744;2023-08-08T00:24:05;1.63;;;0.90;;
70588;SDS011;58152;49.202;18.744;2023-08-08T00:26:30;1.05;;;0.60;;
70588;SDS011;58152;49.202;18.744;2023-08-08T00:28:56;2.58;;;1.58;;
70588;SDS011;58152;49.202;18.744;2023-08-08T00:31:22;1.58;;;0.80;;
70588;SDS011;58152;49.202;18.744;2023-08-08T00:33:47;1.10;;;0.70;;
70588;SDS011;58152;49.202;18.744;2023-08-08T00:36:12;0.50;;;0.50;;
70588;SDS011;58152;49.202;18.744;2023-08-08T00:38:38;0.52;;;0.52;;
70588;SDS011;58152;49.202;18.744;2023-08-08T00:41:03;1.13;;;0.82;;
70588;SDS011;58152;49.202;18.744;2023-08-08T00:43:29;2.35;;;0.70;;
70588;SDS011;58152;49.202;18.744;2023-08-08T00:45:55;0.85;;;0.63;;
70588;SDS011;58152;49.202;18.744;2023-08-08T00:48:22;1.48;;;0.73;;
70588;SDS011;58152;49.202;18.744;2023-08-08T00:50:48;1.92;;;0.60;;
70588;SDS011;58152;49.202;18.744;2023-08-08T00:53:15;1.40;;;0.80;;
70588;SDS011;58152;49.202;18.744;2023-08-08T00:55:40;2.00;;;0.90;;
70588;SDS011;58152;49.202;18.744;2023-08-08T00:58:06;1.65;;;0.90;;
70588;SDS011;58152;49.202;18.744;2023-08-08T01:00:32;0.70;;;0.70;;
70588;SDS011;58152;49.202;18.744;2023-08-08T01:02:57;0.70;;;0.70;;
70588;SDS011;58152;49.202;18.744;2023-08-08T01:05:23;1.15;;;0.77;;
70588;SDS011;58152;49.202;18.744;2023-08-08T01:07:59;2.13;;;0.80;;
70588;SDS011;58152;49.202;18.744;2023-08-08T01:10:32;0.60;;;0.60;;
70588;SDS011;58152;49.202;18.744;2023-08-08T01:13:02;0.80;;;0.55;;
70588;SDS011;58152;49.202;18.744;2023-08-08T01:15:38;1.90;;;0.60;;
70588;SDS011;58152;49.202;18.744;2023-08-08T01:18:04;0.50;;;0.50;;
70588;SDS011;58152;49.202;18.744;2023-08-08T01:20:32;0.60;;;0.60;;
70588;SDS011;58152;49.202;18.744;2023-08-08T01:25:39;1.17;;;0.60;;
70588;SDS011;58152;49.202;18.744;2023-08-08T01:28:06;3.53;;;3.08;;
70588;SDS011;58152;49.202;18.744;2023-08-08T01:30:32;3.08;;;2.78;;
70588;SDS011;58152;49.202;18.744;2023-08-08T01:32:57;2.35;;;1.98;;
70588;SDS011;58152;49.202;18.744;2023-08-08T01:35:23;1.90;;;1.60;;
70588;SDS011;58152;49.202;18.744;2023-08-08T01:37:54;3.08;;;2.72;;
70588;SDS011;58152;49.202;18.744;2023-08-08T01:40:26;2.42;;;2.20;;
70588;SDS011;58152;49.202;18.744;2023-08-08T01:42:53;2.38;;;1.83;;
70588;SDS011;58152;49.202;18.744;2023-08-08T01:45:20;2.10;;;1.20;;
70588;SDS011;58152;49.202;18.744;2023-08-08T01:47:50;1.90;;;0.93;;
70588;SDS011;58152;49.202;18.744;2023-08-08T01:50:16;1.25;;;0.80;;
70588;SDS011;58152;49.202;18.744;2023-08-08T01:52:41;0.70;;;0.70;;
70588;SDS011;58152;49.202;18.744;2023-08-08T01:55:07;0.77;;;0.68;;
70588;SDS011;58152;49.202;18.744;2023-08-08T01:57:33;1.77;;;0.85;;
70588;SDS011;58152;49.202;18.744;2023-08-08T01:59:58;1.23;;;1.02;;
70588;SDS011;58152;49.202;18.744;2023-08-08T02:02:24;1.20;;;0.90;;
70588;SDS011;58152;49.202;18.744;2023-08-08T02:04:49;0.95;;;0.80;;
70588;SDS011;58152;49.202;18.744;2023-08-08T02:07:14;1.50;;;0.88;;
70588;SDS011;58152;49.202;18.744;2023-08-08T02:09:40;1.90;;;0.63;;
70588;SDS011;58152;49.202;18.744;2023-08-08T02:12:06;1.42;;;0.70;;
70588;SDS011;58152;49.202;18.744;2023-08-08T02:14:31;1.08;;;0.80;;
70588;SDS011;58152;49.202;18.744;2023-08-08T02:16:57;2.15;;;0.77;;
70588;SDS011;58152;49.202;18.744;2023-08-08T02:19:22;0.95;;;0.82;;
70588;SDS011;58152;49.202;18.744;2023-08-08T02:21:48;1.30;;;0.77;;
70588;SDS011;58152;49.202;18.744;2023-08-08T02:24:13;1.92;;;1.08;;
70588;SDS011;58152;49.202;18.744;2023-08-08T02:26:39;0.82;;;0.80;;
70588;SDS011;58152;49.202;18.744;2023-08-08T02:29:04;0.70;;;0.70;;
70588;SDS011;58152;49.202;18.744;2023-08-08T02:31:30;1.10;;;0.90;;
70588;SDS011;58152;49.202;18.744;2023-08-08T02:33:55;1.38;;;0.77;;
70588;SDS011;58152;49.202;18.744;2023-08-08T02:36:21;2.60;;;1.00;;
70588;SDS011;58152;49.202;18.744;2023-08-08T02:38:47;1.52;;;0.90;;
70588;SDS011;58152;49.202;18.744;2023-08-08T02:41:12;3.40;;;1.10;;
70588;SDS011;58152;49.202;18.744;2023-08-08T02:43:38;4.20;;;1.63;;
70588;SDS011;58152;49.202;18.744;2023-08-08T02:46:03;3.80;;;1.25;;
70588;SDS011;58152;49.202;18.744;2023-08-08T02:48:29;2.45;;;1.17;;
70588;SDS011;58152;49.202;18.744;2023-08-08T02:50:55;2.70;;;1.10;;
70588;SDS011;58152;49.202;18.744;2023-08-08T02:53:20;2.20;;;0.90;;
70588;SDS011;58152;49.202;18.744;2023-08-08T02:55:46;1.60;;;1.10;;
70588;SDS011;58152;49.202;18.744;2023-08-08T02:58:12;1.05;;;0.77;;
70588;SDS011;58152;49.202;18.744;2023-08-08T03:00:37;4.43;;;1.55;;
70588;SDS011;58152;49.202;18.744;2023-08-08T03:03:02;2.10;;;1.20;;
70588;SDS011;58152;49.202;18.744;2023-08-08T03:05:28;1.75;;;0.90;;
70588;SDS011;58152;49.202;18.744;2023-08-08T03:07:53;1.60;;;1.17;;
70588;SDS011;58152;49.202;18.744;2023-08-08T03:10:19;1.20;;;0.88;;
70588;SDS011;58152;49.202;18.744;2023-08-08T03:12:44;0.80;;;0.70;;
70588;SDS011;58152;49.202;18.744;2023-08-08T03:15:10;1.15;;;0.80;;
70588;SDS011;58152;49.202;18.744;2023-08-08T03:17:35;2.33;;;1.02;;
70588;SDS011;58152;49.202;18.744;2023-08-08T03:20:01;1.48;;;0.93;;
70588;SDS011;58152;49.202;18.744;2023-08-08T03:22:28;1.25;;;1.00;;
70588;SDS011;58152;49.202;18.744;2023-08-08T03:24:54;2.25;;;1.10;;
70588;SDS011;58152;49.202;18.744;2023-08-08T03:27:19;1.83;;;0.90;;
70588;SDS011;58152;49.202;18.744;2023-08-08T03:29:44;1.98;;;1.27;;
70588;SDS011;58152;49.202;18.744;2023-08-08T03:32:10;96.53;;;75.97;;
70588;SDS011;58152;49.202;18.744;2023-08-08T03:34:35;109.70;;;85.45;;
70588;SDS011;58152;49.202;18.744;2023-08-08T03:37:00;63.25;;;47.63;;
70588;SDS011;58152;49.202;18.744;2023-08-08T03:39:26;22.38;;;17.13;;
70588;SDS011;58152;49.202;18.744;2023-08-08T03:41:51;7.63;;;5.72;;
70588;SDS011;58152;49.202;18.744;2023-08-08T03:44:17;3.40;;;2.33;;
70588;SDS011;58152;49.202;18.744;2023-08-08T03:46:42;2.05;;;1.42;;
70588;SDS011;58152;49.202;18.744;2023-08-08T03:49:08;4.03;;;1.20;;
70588;SDS011;58152;49.202;18.744;2023-08-08T03:51:33;1.75;;;0.75;;
70588;SDS011;58152;49.202;18.744;2023-08-08T03:53:58;2.45;;;1.00;;
70588;SDS011;58152;49.202;18.744;2023-08-08T03:56:24;3.22;;;0.90;;
70588;SDS011;58152;49.202;18.744;2023-08-08T03:58:49;1.25;;;1.13;;
70588;SDS011;58152;49.202;18.744;2023-08-08T04:01:15;2.05;;;1.00;;
70588;SDS011;58152;49.202;18.744;2023-08-08T04:03:40;2.53;;;1.20;;
70588;SDS011;58152;49.202;18.744;2023-08-08T04:06:05;5.55;;;3.25;;
70588;SDS011;58152;49.202;18.744;2023-08-08T04:08:31;4.55;;;1.60;;
70588;SDS011;58152;49.202;18.744;2023-08-08T04:10:57;3.88;;;2.22;;
70588;SDS011;58152;49.202;18.744;2023-08-08T04:13:23;2.53;;;1.48;;
70588;SDS011;58152;49.202;18.744;2023-08-08T04:15:48;1.30;;;1.20;;
70588;SDS011;58152;49.202;18.744;2023-08-08T04:18:16;2.53;;;1.30;;
70588;SDS011;58152;49.202;18.744;2023-08-08T04:20:45;4.68;;;1.58;;
70588;SDS011;58152;49.202;18.744;2023-08-08T04:23:12;3.10;;;1.33;;
70588;SDS011;58152;49.202;18.744;2023-08-08T04:25:38;1.20;;;1.10;;
70588;SDS011;58152;49.202;18.744;2023-08-08T04:28:03;1.40;;;1.23;;
70588;SDS011;58152;49.202;18.744;2023-08-08T04:30:29;1.48;;;1.00;;
70588;SDS011;58152;49.202;18.744;2023-08-08T04:32:54;1.70;;;1.10;;
70588;SDS011;58152;49.202;18.744;2023-08-08T04:35:20;4.38;;;1.00;;
70588;SDS011;58152;49.202;18.744;2023-08-08T04:37:45;155.15;;;138.02;;
70588;SDS011;58152;49.202;18.744;2023-08-08T04:40:10;140.13;;;124.65;;
70588;SDS011;58152;49.202;18.744;2023-08-08T04:42:36;78.82;;;68.25;;
70588;SDS011;58152;49.202;18.744;2023-08-08T04:45:02;30.40;;;25.95;;
70588;SDS011;58152;49.202;18.744;2023-08-08T04:47:27;12.88;;;11.57;;
70588;SDS011;58152;49.202;18.744;2023-08-08T04:49:53;6.28;;;5.15;;
70588;SDS011;58152;49.202;18.744;2023-08-08T04:52:18;3.00;;;2.20;;
70588;SDS011;58152;49.202;18.744;2023-08-08T04:54:44;2.50;;;1.75;;
70588;SDS011;58152;49.202;18.744;2023-08-08T04:57:09;1.58;;;1.00;;
70588;SDS011;58152;49.202;18.744;2023-08-08T04:59:35;1.48;;;0.90;;
70588;SDS011;58152;49.202;18.744;2023-08-08T05:02:00;1.30;;;0.82;;
70588;SDS011;58152;49.202;18.744;2023-08-08T05:04:25;1.15;;;0.82;;
70588;SDS011;58152;49.202;18.744;2023-08-08T05:06:51;1.55;;;0.80;;
70588;SDS011;58152;49.202;18.744;2023-08-08T05:09:16;1.25;;;1.00;;
70588;SDS011;58152;49.202;18.744;2023-08-08T05:11:42;1.55;;;1.20;;
70588;SDS011;58152;49.202;18.744;2023-08-08T05:14:07;3.17;;;1.05;;
70588;SDS011;58152;49.202;18.744;2023-08-08T05:16:32;1.65;;;1.30;;
70588;SDS011;58152;49.202;18.744;2023-08-08T05:18:58;1.50;;;1.10;;
70588;SDS011;58152;49.202;18.744;2023-08-08T05:21:23;4.93;;;1.10;;
70588;SDS011;58152;49.202;18.744;2023-08-08T05:23:49;2.55;;;1.08;;
70588;SDS011;58152;49.202;18.744;2023-08-08T05:26:15;3.42;;;1.20;;
70588;SDS011;58152;49.202;18.744;2023-08-08T05:28:40;4.20;;;1.42;;
70588;SDS011;58152;49.202;18.744;2023-08-08T05:31:06;2.50;;;1.10;;
70588;SDS011;58152;49.202;18.744;2023-08-08T05:33:31;1.75;;;1.13;;
70588;SDS011;58152;49.202;18.744;2023-08-08T05:35:58;2.40;;;1.20;;
70588;SDS011;58152;49.202;18.744;2023-08-08T05:38:23;1.52;;;1.20;;
70588;SDS011;58152;49.202;18.744;2023-08-08T05:40:49;1.35;;;1.00;;
70588;SDS011;58152;49.202;18.744;2023-08-08T05:43:14;1.55;;;1.00;;
70588;SDS011;58152;49.202;18.744;2023-08-08T05:45:43;0.95;;;0.88;;
70588;SDS011;58152;49.202;18.744;2023-08-08T05:48:09;1.00;;;0.88;;
70588;SDS011;58152;49.202;18.744;2023-08-08T05:50:37;1.23;;;1.02;;
70588;SDS011;58152;49.202;18.744;2023-08-08T05:53:03;2.40;;;1.50;;
70588;SDS011;58152;49.202;18.744;2023-08-08T05:55:28;2.70;;;1.33;;
70588;SDS011;58152;49.202;18.744;2023-08-08T05:57:53;5.00;;;2.05;;
70588;SDS011;58152;49.202;18.744;2023-08-08T06:00:19;2.53;;;1.15;;
70588;SDS011;58152;49.202;18.744;2023-08-08T06:02:45;1.10;;;0.90;;
70588;SDS011;58152;49.202;18.744;2023-08-08T06:05:10;1.80;;;1.30;;
70588;SDS011;58152;49.202;18.744;2023-08-08T06:07:37;2.92;;;1.45;;
70588;SDS011;58152;49.202;18.744;2023-08-08T06:10:02;2.65;;;1.20;;
70588;SDS011;58152;49.202;18.744;2023-08-08T06:12:28;1.52;;;1.17;;
70588;SDS011;58152;49.202;18.744;2023-08-08T06:14:53;1.25;;;0.93;;
70588;SDS011;58152;49.202;18.744;2023-08-08T06:17:18;2.53;;;1.00;;
70588;SDS011;58152;49.202;18.744;2023-08-08T06:19:45;4.30;;;1.20;;
70588;SDS011;58152;49.202;18.744;2023-08-08T06:22:11;4.30;;;1.33;;
70588;SDS011;58152;49.202;18.744;2023-08-08T06:24:37;2.20;;;1.25;;
70588;SDS011;58152;49.202;18.744;2023-08-08T06:27:04;1.20;;;1.08;;
70588;SDS011;58152;49.202;18.744;2023-08-08T06:29:29;1.27;;;1.02;;
70588;SDS011;58152;49.202;18.744;2023-08-08T06:31:55;2.45;;;1.10;;
70588;SDS011;58152;49.202;18.744;2023-08-08T06:34:21;2.60;;;1.30;;
70588;SDS011;58152;49.202;18.744;2023-08-08T06:36:46;1.70;;;1.40;;
70588;SDS011;58152;49.202;18.744;2023-08-08T06:39:12;1.92;;;1.15;;
70588;SDS011;58152;49.202;18.744;2023-08-08T06:41:37;2.03;;;1.05;;
70588;SDS011;58152;49.202;18.744;2023-08-08T06:44:03;3.28;;;1.15;;
70588;SDS011;58152;49.202;18.744;2023-08-08T06:46:29;3.95;;;1.25;;
70588;SDS011;58152;49.202;18.744;2023-08-08T06:48:55;2.95;;;0.95;;
70588;SDS011;58152;49.202;18.744;2023-08-08T06:51:22;2.05;;;1.02;;
70588;SDS011;58152;49.202;18.744;2023-08-08T06:53:48;1.65;;;1.05;;
70588;SDS011;58152;49.202;18.744;2023-08-08T06:56:13;2.00;;;0.98;;
70588;SDS011;58152;49.202;18.744;2023-08-08T06:58:39;1.60;;;1.00;;
70588;SDS011;58152;49.202;18.744;2023-08-08T07:01:04;2.35;;;1.38;;
70588;SDS011;58152;49.202;18.744;2023-08-08T07:03:29;2.03;;;1.17;;
70588;SDS011;58152;49.202;18.744;2023-08-08T07:05:55;1.50;;;0.85;;
70588;SDS011;58152;49.202;18.744;2023-08-08T07:08:20;4.03;;;1.77;;
70588;SDS011;58152;49.202;18.744;2023-08-08T07:10:46;3.28;;;1.55;;
70588;SDS011;58152;49.202;18.744;2023-08-08T07:13:12;2.10;;;1.25;;
70588;SDS011;58152;49.202;18.744;2023-08-08T07:15:38;1.10;;;1.00;;
70588;SDS011;58152;49.202;18.744;2023-08-08T07:18:04;1.63;;;1.05;;
70588;SDS011;58152;49.202;18.744;2023-08-08T07:20:38;1.17;;;1.08;;
70588;SDS011;58152;49.202;18.744;2023-08-08T07:23:07;2.58;;;1.27;;
70588;SDS011;58152;49.202;18.744;2023-08-08T07:25:53;1.85;;;1.05;;
70588;SDS011;58152;49.202;18.744;2023-08-08T07:28:19;1.70;;;1.30;;
70588;SDS011;58152;49.202;18.744;2023-08-08T07:30:44;1.70;;;1.27;;
70588;SDS011;58152;49.202;18.744;2023-08-08T07:33:10;2.50;;;1.10;;
70588;SDS011;58152;49.202;18.744;2023-08-08T07:35:35;2.75;;;1.35;;
70588;SDS011;58152;49.202;18.744;2023-08-08T07:38:01;1.20;;;1.08;;
70588;SDS011;58152;49.202;18.744;2023-08-08T07:40:26;4.43;;;1.55;;
70588;SDS011;58152;49.202;18.744;2023-08-08T07:42:52;1.50;;;1.40;;
70588;SDS011;58152;49.202;18.744;2023-08-08T07:45:17;2.40;;;1.48;;
70588;SDS011;58152;49.202;18.744;2023-08-08T07:47:43;1.95;;;1.25;;
70588;SDS011;58152;49.202;18.744;2023-08-08T07:50:09;2.17;;;1.45;;
70588;SDS011;58152;49.202;18.744;2023-08-08T07:52:35;2.85;;;1.60;;
70588;SDS011;58152;49.202;18.744;2023-08-08T07:55:07;2.38;;;1.20;;
70588;SDS011;58152;49.202;18.744;2023-08-08T07:57:51;2.30;;;1.20;;
70588;SDS011;58152;49.202;18.744;2023-08-08T08:00:16;1.60;;;1.20;;
70588;SDS011;58152;49.202;18.744;2023-08-08T08:02:43;1.95;;;1.27;;
70588;SDS011;58152;49.202;18.744;2023-08-08T08:05:10;2.20;;;0.82;;
70588;SDS011;58152;49.202;18.744;2023-08-08T08:07:35;1.58;;;1.08;;
70588;SDS011;58152;49.202;18.744;2023-08-08T08:10:05;3.55;;;1.95;;
70588;SDS011;58152;49.202;18.744;2023-08-08T08:12:42;2.53;;;1.92;;
70588;SDS011;58152;49.202;18.744;2023-08-08T08:15:08;1.85;;;1.58;;
70588;SDS011;58152;49.202;18.744;2023-08-08T08:17:34;1.50;;;1.27;;
70588;SDS011;58152;49.202;18.744;2023-08-08T08:20:05;3.33;;;1.30;;
70588;SDS011;58152;49.202;18.744;2023-08-08T08:22:35;2.13;;;1.20;;
70588;SDS011;58152;49.202;18.744;2023-08-08T08:25:04;1.85;;;0.90;;
70588;SDS011;58152;49.202;18.744;2023-08-08T08:27:32;2.75;;;1.10;;
70588;SDS011;58152;49.202;18.744;2023-08-08T08:29:58;2.63;;;1.20;;
70588;SDS011;58152;49.202;18.744;2023-08-08T08:32:23;1.10;;;0.95;;
70588;SDS011;58152;49.202;18.744;2023-08-08T08:34:52;1.70;;;1.45;;
70588;SDS011;58152;49.202;18.744;2023-08-08T08:37:17;1.33;;;1.00;;
70588;SDS011;58152;49.202;18.744;2023-08-08T08:39:43;1.98;;;1.00;;
70588;SDS011;58152;49.202;18.744;2023-08-08T08:42:08;2.00;;;1.17;;
70588;SDS011;58152;49.202;18.744;2023-08-08T08:44:41;3.38;;;1.60;;
70588;SDS011;58152;49.202;18.744;2023-08-08T08:47:07;3.83;;;1.33;;
70588;SDS011;58152;49.202;18.744;2023-08-08T08:49:36;7.05;;;2.08;;
70588;SDS011;58152;49.202;18.744;2023-08-08T08:52:03;2.17;;;1.77;;
70588;SDS011;58152;49.202;18.744;2023-08-08T08:54:32;3.35;;;1.20;;
70588;SDS011;58152;49.202;18.744;2023-08-08T08:56:58;1.65;;;1.10;;
70588;SDS011;58152;49.202;18.744;2023-08-08T08:59:26;2.30;;;1.20;;
70588;SDS011;58152;49.202;18.744;2023-08-08T09:01:56;1.98;;;1.13;;
70588;SDS011;58152;49.202;18.744;2023-08-08T09:04:51;2.90;;;1.33;;
70588;SDS011;58152;49.202;18.744;2023-08-08T09:07:20;2.35;;;1.45;;
70588;SDS011;58152;49.202;18.744;2023-08-08T09:09:53;2.85;;;1.25;;
70588;SDS011;58152;49.202;18.744;2023-08-08T09:12:21;3.00;;;1.90;;
70588;SDS011;58152;49.202;18.744;2023-08-08T09:14:54;2.30;;;1.27;;
70588;SDS011;58152;49.202;18.744;2023-08-08T09:17:26;1.67;;;1.30;;
70588;SDS011;58152;49.202;18.744;2023-08-08T09:19:53;1.73;;;1.10;;
70588;SDS011;58152;49.202;18.744;2023-08-08T09:22:22;2.35;;;1.48;;
70588;SDS011;58152;49.202;18.744;2023-08-08T09:24:51;2.70;;;1.20;;
70588;SDS011;58152;49.202;18.744;2023-08-08T09:27:20;3.45;;;1.50;;
70588;SDS011;58152;49.202;18.744;2023-08-08T09:29:46;2.75;;;1.10;;
70588;SDS011;58152;49.202;18.744;2023-08-08T09:32:20;2.83;;;1.38;;
70588;SDS011;58152;49.202;18.744;2023-08-08T09:38:13;1.25;;;0.82;;
70588;SDS011;58152;49.202;18.744;2023-08-08T09:40:49;3.25;;;1.42;;
70588;SDS011;58152;49.202;18.744;2023-08-08T09:43:44;1.83;;;1.30;;
70588;SDS011;58152;49.202;18.744;2023-08-08T09:46:16;3.25;;;1.40;;
70588;SDS011;58152;49.202;18.744;2023-08-08T09:48:56;1.65;;;1.50;;
70588;SDS011;58152;49.202;18.744;2023-08-08T09:51:31;2.22;;;1.17;;
70588;SDS011;58152;49.202;18.744;2023-08-08T09:54:02;2.60;;;1.23;;
70588;SDS011;58152;49.202;18.744;2023-08-08T09:56:57;3.58;;;1.52;;
70588;SDS011;58152;49.202;18.744;2023-08-08T09:59:55;2.38;;;1.10;;
70588;SDS011;58152;49.202;18.744;2023-08-08T10:02:28;4.47;;;1.55;;
70588;SDS011;58152;49.202;18.744;2023-08-08T10:04:55;1.92;;;1.35;;
70588;SDS011;58152;49.202;18.744;2023-08-08T10:07:23;2.42;;;1.25;;
70588;SDS011;58152;49.202;18.744;2023-08-08T10:09:48;2.35;;;1.30;;
70588;SDS011;58152;49.202;18.744;2023-08-08T10:12:17;2.92;;;1.00;;
70588;SDS011;58152;49.202;18.744;2023-08-08T10:14:44;1.75;;;1.00;;
70588;SDS011;58152;49.202;18.744;2023-08-08T10:17:12;2.38;;;1.50;;
70588;SDS011;58152;49.202;18.744;2023-08-08T10:19:39;2.95;;;1.02;;
70588;SDS011;58152;49.202;18.744;2023-08-08T10:22:05;1.70;;;1.08;;
70588;SDS011;58152;49.202;18.744;2023-08-08T10:24:36;1.02;;;0.90;;
70588;SDS011;58152;49.202;18.744;2023-08-08T10:27:01;1.50;;;1.00;;
70588;SDS011;58152;49.202;18.744;2023-08-08T10:29:29;1.08;;;0.85;;
70588;SDS011;58152;49.202;18.744;2023-08-08T10:32:00;1.70;;;0.98;;
70588;SDS011;58152;49.202;18.744;2023-08-08T10:34:43;1.27;;;1.02;;
70588;SDS011;58152;49.202;18.744;2023-08-08T10:37:16;2.20;;;1.08;;
70588;SDS011;58152;49.202;18.744;2023-08-08T10:39:50;1.10;;;0.80;;
70588;SDS011;58152;49.202;18.744;2023-08-08T10:42:31;1.30;;;0.80;;
70588;SDS011;58152;49.202;18.744;2023-08-08T10:45:01;1.38;;;0.82;;
70588;SDS011;58152;49.202;18.744;2023-08-08T10:47:38;1.17;;;1.08;;
70588;SDS011;58152;49.202;18.744;2023-08-08T10:50:08;2.45;;;1.30;;
70588;SDS011;58152;49.202;18.744;2023-08-08T10:57:59;1.40;;;0.95;;
70588;SDS011;58152;49.202;18.744;2023-08-08T11:00:31;2.55;;;1.20;;
70588;SDS011;58152;49.202;18.744;2023-08-08T11:02:59;1.00;;;0.90;;
70588;SDS011;58152;49.202;18.744;2023-08-08T11:05:27;1.13;;;0.90;;
70588;SDS011;58152;49.202;18.744;2023-08-08T11:07:54;1.83;;;1.02;;
70588;SDS011;58152;49.202;18.744;2023-08-08T11:10:20;0.75;;;0.75;;
70588;SDS011;58152;49.202;18.744;2023-08-08T11:12:56;2.22;;;1.20;;
70588;SDS011;58152;49.202;18.744;2023-08-08T11:15:23;1.00;;;0.90;;
70588;SDS011;58152;49.202;18.744;2023-08-08T11:17:49;1.60;;;0.85;;
70588;SDS011;58152;49.202;18.744;2023-08-08T11:20:15;1.88;;;0.70;;
70588;SDS011;58152;49.202;18.744;2023-08-08T11:22:40;2.78;;;0.93;;
70588;SDS011;58152;49.202;18.744;2023-08-08T11:25:07;2.88;;;0.90;;
70588;SDS011;58152;49.202;18.744;2023-08-08T11:27:33;2.65;;;1.35;;
70588;SDS011;58152;49.202;18.744;2023-08-08T11:29:58;1.48;;;0.98;;
70588;SDS011;58152;49.202;18.744;2023-08-08T11:32:25;1.02;;;0.90;;
70588;SDS011;58152;49.202;18.744;2023-08-08T11:34:53;1.02;;;0.75;;
70588;SDS011;58152;49.202;18.744;2023-08-08T11:37:19;1.40;;;0.85;;
70588;SDS011;58152;49.202;18.744;2023-08-08T11:39:45;0.90;;;0.90;;
70588;SDS011;58152;49.202;18.744;2023-08-08T11:42:11;3.25;;;1.73;;
70588;SDS011;58152;49.202;18.744;2023-08-08T11:44:36;1.48;;;1.25;;
70588;SDS011;58152;49.202;18.744;2023-08-08T11:47:02;1.95;;;1.38;;
70588;SDS011;58152;49.202;18.744;2023-08-08T11:49:28;1.40;;;1.05;;
70588;SDS011;58152;49.202;18.744;2023-08-08T11:51:56;1.25;;;0.77;;
70588;SDS011;58152;49.202;18.744;2023-08-08T11:54:21;1.50;;;0.90;;
70588;SDS011;58152;49.202;18.744;2023-08-08T11:56:46;1.30;;;0.80;;
70588;SDS011;58152;49.202;18.744;2023-08-08T11:59:12;1.23;;;1.13;;
70588;SDS011;58152;49.202;18.744;2023-08-08T12:01:37;1.45;;;1.10;;
70588;SDS011;58152;49.202;18.744;2023-08-08T12:04:07;1.48;;;0.90;;
70588;SDS011;58152;49.202;18.744;2023-08-08T12:06:34;1.05;;;0.70;;
70588;SDS011;58152;49.202;18.744;2023-08-08T12:09:05;2.30;;;1.25;;
70588;SDS011;58152;49.202;18.744;2023-08-08T12:11:34;1.05;;;0.80;;
70588;SDS011;58152;49.202;18.744;2023-08-08T12:14:01;1.77;;;1.33;;
70588;SDS011;58152;49.202;18.744;2023-08-08T12:16:27;1.88;;;1.35;;
70588;SDS011;58152;49.202;18.744;2023-08-08T12:18:55;1.92;;;1.02;;
70588;SDS011;58152;49.202;18.744;2023-08-08T12:21:20;1.25;;;1.00;;
70588;SDS011;58152;49.202;18.744;2023-08-08T12:23:46;1.70;;;1.00;;
70588;SDS011;58152;49.202;18.744;2023-08-08T12:26:11;1.02;;;0.93;;
70588;SDS011;58152;49.202;18.744;2023-08-08T12:28:37;1.00;;;0.80;;
70588;SDS011;58152;49.202;18.744;2023-08-08T12:31:03;1.80;;;0.90;;
70588;SDS011;58152;49.202;18.744;2023-08-08T12:33:28;1.33;;;0.80;;
70588;SDS011;58152;49.202;18.744;2023-08-08T12:35:54;1.42;;;0.80;;
70588;SDS011;58152;49.202;18.744;2023-08-08T12:38:21;2.33;;;1.05;;
70588;SDS011;58152;49.202;18.744;2023-08-08T12:40:49;2.50;;;0.95;;
70588;SDS011;58152;49.202;18.744;2023-08-08T12:43:15;1.05;;;0.93;;
70588;SDS011;58152;49.202;18.744;2023-08-08T12:45:56;1.05;;;0.90;;
70588;SDS011;58152;49.202;18.744;2023-08-08T12:48:22;1.80;;;1.10;;
70588;SDS011;58152;49.202;18.744;2023-08-08T12:50:47;1.25;;;0.90;;
70588;SDS011;58152;49.202;18.744;2023-08-08T12:53:12;1.50;;;1.20;;
70588;SDS011;58152;49.202;18.744;2023-08-08T12:55:38;2.35;;;1.45;;
70588;SDS011;58152;49.202;18.744;2023-08-08T12:58:04;1.63;;;1.00;;
70588;SDS011;58152;49.202;18.744;2023-08-08T13:00:32;1.60;;;1.05;;
70588;SDS011;58152;49.202;18.744;2023-08-08T13:02:58;1.30;;;0.90;;
70588;SDS011;58152;49.202;18.744;2023-08-08T13:05:23;0.95;;;0.77;;
70588;SDS011;58152;49.202;18.744;2023-08-08T13:07:49;2.65;;;1.05;;
70588;SDS011;58152;49.202;18.744;2023-08-08T13:10:14;1.35;;;0.80;;
70588;SDS011;58152;49.202;18.744;2023-08-08T13:12:39;1.08;;;0.82;;
70588;SDS011;58152;49.202;18.744;2023-08-08T13:15:05;1.25;;;0.90;;
70588;SDS011;58152;49.202;18.744;2023-08-08T13:17:33;1.17;;;0.90;;
70588;SDS011;58152;49.202;18.744;2023-08-08T13:19:58;3.28;;;1.33;;
70588;SDS011;58152;49.202;18.744;2023-08-08T13:22:24;2.58;;;1.00;;
70588;SDS011;58152;49.202;18.744;2023-08-08T13:24:49;1.23;;;1.00;;
70588;SDS011;58152;49.202;18.744;2023-08-08T13:27:15;3.30;;;1.00;;
70588;SDS011;58152;49.202;18.744;2023-08-08T13:29:40;1.30;;;1.00;;
70588;SDS011;58152;49.202;18.744;2023-08-08T13:32:05;1.50;;;1.08;;
70588;SDS011;58152;49.202;18.744;2023-08-08T13:34:31;0.98;;;0.80;;
70588;SDS011;58152;49.202;18.744;2023-08-08T13:36:56;1.35;;;0.95;;
70588;SDS011;58152;49.202;18.744;2023-08-08T13:39:22;1.00;;;0.93;;
70588;SDS011;58152;49.202;18.744;2023-08-08T13:41:47;1.25;;;0.80;;
70588;SDS011;58152;49.202;18.744;2023-08-08T13:44:13;1.25;;;0.70;;
70588;SDS011;58152;49.202;18.744;2023-08-08T13:46:38;1.60;;;0.80;;
70588;SDS011;58152;49.202;18.744;2023-08-08T13:49:04;2.22;;;0.90;;
70588;SDS011;58152;49.202;18.744;2023-08-08T13:51:29;1.63;;;0.90;;
70588;SDS011;58152;49.202;18.744;2023-08-08T13:53:55;0.98;;;0.70;;
70588;SDS011;58152;49.202;18.744;2023-08-08T13:56:20;3.38;;;1.20;;
70588;SDS011;58152;49.202;18.744;2023-08-08T13:58:46;2.13;;;1.00;;
70588;SDS011;58152;49.202;18.744;2023-08-08T14:01:11;1.98;;;0.98;;
70588;SDS011;58152;49.202;18.744;2023-08-08T14:03:37;1.92;;;0.90;;
70588;SDS011;58152;49.202;18.744;2023-08-08T14:06:03;1.30;;;0.70;;
70588;SDS011;58152;49.202;18.744;2023-08-08T14:08:28;1.40;;;1.00;;
70588;SDS011;58152;49.202;18.744;2023-08-08T14:10:54;43.65;;;39.38;;
70588;SDS011;58152;49.202;18.744;2023-08-08T14:13:19;35.85;;;32.30;;
70588;SDS011;58152;49.202;18.744;2023-08-08T14:15:48;9.90;;;9.00;;
70588;SDS011;58152;49.202;18.744;2023-08-08T14:18:13;5.85;;;3.70;;
70588;SDS011;58152;49.202;18.744;2023-08-08T14:20:39;1.60;;;1.45;;
70588;SDS011;58152;49.202;18.744;2023-08-08T14:23:05;1.17;;;1.08;;
70588;SDS011;58152;49.202;18.744;2023-08-08T14:25:31;1.20;;;1.10;;
70588;SDS011;58152;49.202;18.744;2023-08-08T14:27:56;1.35;;;0.90;;
70588;SDS011;58152;49.202;18.744;2023-08-08T14:30:22;1.02;;;0.90;;
70588;SDS011;58152;49.202;18.744;2023-08-08T14:32:50;0.90;;;0.75;;
70588;SDS011;58152;49.202;18.744;2023-08-08T14:35:16;1.33;;;1.02;;
70588;SDS011;58152;49.202;18.744;2023-08-08T14:37:42;1.65;;;1.15;;
70588;SDS011;58152;49.202;18.744;2023-08-08T14:40:07;2.15;;;1.38;;
70588;SDS011;58152;49.202;18.744;2023-08-08T14:42:34;1.30;;;1.20;;
70588;SDS011;58152;49.202;18.744;2023-08-08T14:44:59;1.38;;;1.13;;